Terminal Aerodrome Forecast
Issued by NWS

Home | Current Version | Previous Version | Text Only | Print | Product List | Glossary On
Versions: 1 2 3 4 5 6 7 8 9 10 11 12 13 14 15 16
000
FTUS45 KPSR 261123
TAFIPL
TAF
KIPL 261123Z 2612/2712 27010KT P6SM FEW250
     FM261500 29012KT P6SM FEW100 FEW200
     FM261900 32016G22KT P6SM FEW100 SCT200
     FM270200 26011KT P6SM FEW200=

USA.gov is the U.S. government's official web portal to all federal, state and local government web resources and services.